Time;durP1;ratioP1;P1;durP2;ratioP2;P2;SDS_P1;SDS_P2;PMS_P1;PMS_P2;Temp;Humidity;BMP_temperature;BMP_pressure;BME280_temperature;BME280_humidity;BME280_pressure;Samples;Min_cycle;Max_cycle;Signal;HPM_P1;HPM_P2
2023/01/23 00:00:29;;;;;;;18.52;9.18;;;;;;;4.14;100.00;101409.28;5079687;28;20048;-77
2023/01/23 00:02:55;;;;;;;14.98;9.77;;;;;;;3.56;100.00;101296.09;5086008;28;20048;-77
2023/01/23 00:05:21;;;;;;;14.88;8.50;;;;;;;3.22;100.00;101270.38;5080944;28;20131;-78
2023/01/23 00:07:46;;;;;;;11.85;7.00;;;;;;;3.77;100.00;101388.66;5083647;28;20032;-78
2023/01/23 00:10:12;;;;;;;19.88;7.85;;;;;;;3.25;100.00;101267.91;5086908;28;20036;-77
2023/01/23 00:12:42;;;;;;;14.05;8.25;;;;;;;3.48;100.00;101390.84;5080410;28;20063;-79
2023/01/23 00:15:09;;;;;;;17.90;7.78;;;;;;;3.77;100.00;101406.84;5082516;28;20167;-79
2023/01/23 00:17:34;;;;;;;17.95;7.38;;;;;;;3.83;100.00;101417.47;5083906;28;20583;-80
2023/01/23 00:20:00;;;;;;;16.73;6.90;;;;;;;3.70;100.00;101425.53;5086782;28;20040;-76
2023/01/23 00:22:25;;;;;;;13.73;7.03;;;;;;;3.69;100.00;101405.59;5084134;28;20044;-78
2023/01/23 00:24:51;;;;;;;15.32;9.20;;;;;;;3.97;100.00;101431.94;5080751;28;20051;-78
2023/01/23 00:27:17;;;;;;;13.38;7.50;;;;;;;1.77;100.00;101071.38;5082862;28;20043;-77
2023/01/23 00:29:43;;;;;;;15.48;7.45;;;;;;;3.97;100.00;101439.72;5076068;28;20522;-77
2023/01/23 00:32:08;;;;;;;12.20;6.75;;;;;;;3.61;100.00;101436.41;5082403;28;20135;-77
2023/01/23 00:34:34;;;;;;;14.40;6.82;;;;;;;3.62;100.00;101398.38;5084773;28;20040;-77
2023/01/23 00:36:59;;;;;;;19.05;8.25;;;;;;;3.47;100.00;101447.88;5081282;28;20776;-78
2023/01/23 00:39:25;;;;;;;13.02;6.38;;;;;;;2.59;100.00;101288.31;5085999;28;20051;-78
2023/01/23 00:41:50;;;;;;;15.93;6.20;;;;;;;2.51;100.00;101285.38;5082759;28;20055;-77
2023/01/23 00:44:16;;;;;;;12.00;4.90;;;;;;;3.25;100.00;101433.03;5085445;28;20043;-79
2023/01/23 00:46:41;;;;;;;12.27;6.57;;;;;;;3.55;100.00;101439.59;5081970;28;20540;-78
2023/01/23 00:49:08;;;;;;;18.38;8.32;;;;;;;2.62;100.00;101322.16;5078131;28;20093;-77
2023/01/23 00:51:33;;;;;;;11.98;5.57;;;;;;;3.10;100.00;101447.06;5082602;28;20517;-77
2023/01/23 00:53:59;;;;;;;11.00;5.75;;;;;;;2.94;100.00;101387.53;5080982;28;20047;-77
2023/01/23 00:56:25;;;;;;;13.57;6.47;;;;;;;2.17;100.00;101269.94;5084191;28;20055;-76
2023/01/23 00:58:50;;;;;;;10.18;4.78;;;;;;;2.29;100.00;101313.63;5080140;28;20047;-77
2023/01/23 01:01:18;;;;;;;12.93;5.97;;;;;;;2.41;100.00;101321.09;5085156;28;20024;-76
2023/01/23 01:03:44;;;;;;;9.93;6.18;;;;;;;2.88;100.00;101407.97;5077099;28;20051;-77
2023/01/23 01:06:11;;;;;;;9.48;4.82;;;;;;;2.13;100.00;101290.41;5084266;28;20044;-76
2023/01/23 01:08:36;;;;;;;11.02;5.88;;;;;;;2.99;100.00;101445.66;5080778;28;20040;-77
2023/01/23 01:11:03;;;;;;;11.55;5.88;;;;;;;3.16;100.00;101451.63;5084904;28;20043;-77
2023/01/23 01:13:28;;;;;;;14.10;5.55;;;;;;;2.71;100.00;101355.34;5082105;28;20032;-77
2023/01/23 01:15:54;;;;;;;15.05;5.38;;;;;;;3.19;100.00;101448.31;5081954;28;20139;-78
2023/01/23 01:18:21;;;;;;;11.70;5.97;;;;;;;3.37;100.00;101449.16;5085329;28;20090;-77
2023/01/23 01:20:47;;;;;;;11.68;4.35;;;;;;;3.13;100.00;101448.91;5078767;28;20102;-77
2023/01/23 01:23:12;;;;;;;10.73;5.93;;;;;;;3.01;100.00;101366.25;5080543;28;20051;-77
2023/01/23 01:25:38;;;;;;;13.82;6.32;;;;;;;2.22;100.00;101324.53;5077617;28;20046;-78
2023/01/23 01:28:04;;;;;;;10.90;4.95;;;;;;;2.33;100.00;101352.72;5078118;28;20476;-77
2023/01/23 01:30:30;;;;;;;7.57;4.30;;;;;;;2.56;100.00;101334.81;5078613;28;20041;-77
2023/01/23 01:32:56;;;;;;;9.18;5.07;;;;;;;2.78;100.00;101372.06;5076444;28;20040;-76
2023/01/23 01:35:22;;;;;;;11.10;4.80;;;;;;;2.47;100.00;101317.13;5081623;28;20048;-76
2023/01/23 01:37:49;;;;;;;13.82;5.43;;;;;;;2.73;100.00;101320.91;5077864;28;20032;-75
2023/01/23 01:40:24;;;;;;;13.70;4.50;;;;;;;2.65;100.00;101330.06;5077584;28;20040;-77
2023/01/23 01:42:56;;;;;;;11.73;5.25;;;;;;;2.97;100.00;101374.69;5082745;28;20137;-76
2023/01/23 01:45:59;;;;;;;14.10;6.13;;;;;;;3.51;100.00;101465.34;5084473;28;20109;-76
2023/01/23 01:48:37;;;;;;;10.25;4.95;;;;;;;2.63;100.00;101334.28;5080836;28;20260;-76
2023/01/23 01:51:26;;;;;;;10.02;5.18;;;;;;;2.70;100.00;101322.50;5081522;28;20062;-75
2023/01/23 01:54:01;;;;;;;14.05;4.28;;;;;;;2.73;100.00;101330.41;5081610;28;20048;-76
2023/01/23 01:56:29;;;;;;;9.85;3.80;;;;;;;2.41;100.00;101324.63;5079658;28;20532;-78
2023/01/23 01:58:55;;;;;;;11.25;6.53;;;;;;;3.28;100.00;101433.19;5080262;28;20052;-78
2023/01/23 02:01:21;;;;;;;9.10;5.00;;;;;;;3.17;100.00;101484.53;5080946;28;20032;-78
2023/01/23 02:03:49;;;;;;;14.15;4.75;;;;;;;2.18;100.00;101332.94;5084196;28;20070;-78
2023/01/23 02:06:15;;;;;;;11.02;4.38;;;;;;;2.47;100.00;101324.00;5081136;28;20098;-80
2023/01/23 02:08:43;;;;;;;10.77;6.07;;;;;;;3.33;100.00;101483.56;5081273;28;20067;-78
2023/01/23 02:11:09;;;;;;;10.98;5.50;;;;;;;2.88;100.00;101476.28;5080210;28;20556;-79
2023/01/23 02:13:38;;;;;;;10.98;5.10;;;;;;;2.59;100.00;101473.94;5086571;28;20028;-79
2023/01/23 02:16:10;;;;;;;9.57;4.05;;;;;;;2.74;100.00;101446.22;5081632;28;20040;-77
2023/01/23 02:18:43;;;;;;;6.65;3.55;;;;;;;2.14;100.00;101355.22;5078207;28;20055;-77
2023/01/23 02:21:11;;;;;;;5.78;2.83;;;;;;;1.94;100.00;101330.03;5077854;28;20048;-77
2023/01/23 02:23:36;;;;;;;7.25;4.28;;;;;;;2.72;100.00;101491.91;5080021;28;20052;-77
2023/01/23 02:26:10;;;;;;;8.55;3.90;;;;;;;2.67;100.00;101473.53;5079037;28;20052;-77
2023/01/23 02:28:37;;;;;;;11.60;5.38;;;;;;;2.23;100.00;101334.97;5085403;28;20055;-77
2023/01/23 02:31:02;;;;;;;12.13;4.90;;;;;;;2.23;100.00;101323.72;5076738;28;20055;-77
2023/01/23 02:33:28;;;;;;;12.55;6.43;;;;;;;2.95;100.00;101480.94;5078615;28;20044;-77
2023/01/23 02:35:54;;;;;;;11.30;5.47;;;;;;;2.20;100.00;101329.66;5075854;28;20052;-77
2023/01/23 02:38:28;;;;;;;10.02;4.85;;;;;;;3.16;100.00;101469.78;5081503;28;20399;-77
2023/01/23 02:40:56;;;;;;;7.85;4.13;;;;;;;3.21;100.00;101476.09;5085546;28;20040;-77
2023/01/23 02:43:25;;;;;;;10.02;4.90;;;;;;;2.62;100.00;101386.91;5083573;28;20028;-77
2023/01/23 02:45:53;;;;;;;8.13;4.35;;;;;;;3.24;100.00;101484.00;5087719;28;20040;-78
2023/01/23 02:48:19;;;;;;;10.85;4.65;;;;;;;2.43;100.00;101377.34;5083562;28;20052;-77
2023/01/23 02:50:45;;;;;;;8.82;3.95;;;;;;;3.14;100.00;101464.56;5080023;28;20081;-77
2023/01/23 02:53:11;;;;;;;11.45;4.20;;;;;;;3.08;100.00;101448.69;5088713;28;20064;-77
2023/01/23 02:55:41;;;;;;;9.82;5.38;;;;;;;3.07;100.00;101443.44;5086916;28;20473;-76
2023/01/23 03:00:51;;;;;;;24.77;7.18;;;;;;;2.31;100.00;101333.63;5088210;28;20047;-77
2023/01/23 03:03:16;;;;;;;8.82;4.80;;;;;;;2.53;100.00;101369.22;5087804;28;20040;-78
2023/01/23 03:05:42;;;;;;;13.93;5.93;;;;;;;2.44;100.00;101358.41;5088336;28;20056;-78
2023/01/23 03:08:07;;;;;;;8.30;3.78;;;;;;;3.27;100.00;101470.28;5086627;28;20121;-78
2023/01/23 03:10:33;;;;;;;8.65;4.30;;;;;;;2.23;100.00;101359.97;5090086;28;20051;-78
2023/01/23 03:13:02;;;;;;;14.68;4.80;;;;;;;2.44;100.00;101363.59;5086059;28;20060;-78
2023/01/23 03:15:29;;;;;;;9.82;5.03;;;;;;;2.72;100.00;101391.72;5088053;28;20770;-77
2023/01/23 03:17:55;;;;;;;10.20;5.00;;;;;;;3.30;100.00;101510.25;5084898;28;20150;-78
2023/01/23 03:20:22;;;;;;;9.45;4.25;;;;;;;2.96;100.00;101472.34;5082266;28;20140;-77
2023/01/23 03:22:48;;;;;;;7.85;3.85;;;;;;;2.92;100.00;101422.84;5086375;28;20473;-76
2023/01/23 03:25:13;;;;;;;9.98;4.72;;;;;;;3.40;100.00;101532.31;5083990;28;20036;-78
2023/01/23 03:27:39;;;;;;;7.35;4.55;;;;;;;2.41;100.00;101341.81;5086998;28;20055;-78
2023/01/23 03:30:20;;;;;;;8.10;3.85;;;;;;;3.24;100.00;101522.91;5087085;28;20586;-77
2023/01/23 03:32:46;;;;;;;11.20;4.85;;;;;;;2.39;100.00;101414.28;5079584;28;20048;-78
2023/01/23 03:35:13;;;;;;;6.55;4.00;;;;;;;2.25;100.00;101390.31;5084394;28;20040;-77
2023/01/23 03:37:39;;;;;;;9.90;4.82;;;;;;;3.11;100.00;101513.69;5085397;28;20478;-77
2023/01/23 03:42:49;;;;;;;9.38;4.63;;;;;;;2.49;100.00;101434.63;5087523;28;20051;-80
2023/01/23 03:45:14;;;;;;;9.77;6.57;;;;;;;3.29;100.00;101546.47;5085970;28;20052;-78
2023/01/23 03:47:39;;;;;;;11.63;5.28;;;;;;;2.52;100.00;101384.69;5087535;28;20040;-77
2023/01/23 03:50:06;;;;;;;11.13;4.97;;;;;;;3.40;100.00;101544.41;5087447;28;20043;-78
2023/01/23 03:52:32;;;;;;;16.17;5.00;;;;;;;2.54;100.00;101412.44;5081435;28;20679;-79
2023/01/23 03:54:57;;;;;;;13.02;5.20;;;;;;;3.13;100.00;101558.69;5083461;28;20060;-79
2023/01/23 03:57:22;;;;;;;11.40;5.13;;;;;;;2.72;100.00;101512.63;5087097;28;20117;-78
2023/01/23 03:59:48;;;;;;;9.52;5.55;;;;;;;2.48;100.00;101425.09;5081054;28;20071;-79
2023/01/23 04:02:13;;;;;;;10.05;5.28;;;;;;;3.09;100.00;101568.84;5084581;28;20059;-77
2023/01/23 04:04:39;;;;;;;12.00;6.40;;;;;;;1.97;100.00;101374.22;5087495;28;20067;-75
2023/01/23 04:07:05;;;;;;;8.88;4.55;;;;;;;2.78;100.00;101582.00;5084559;28;20031;-76
2023/01/23 04:09:30;;;;;;;9.43;4.07;;;;;;;1.96;100.00;101450.06;5086811;28;20568;-77
2023/01/23 04:11:58;;;;;;;8.23;3.10;;;;;;;2.11;100.00;101500.94;5086032;28;20062;-79
2023/01/23 04:14:25;;;;;;;9.77;4.20;;;;;;;2.85;100.00;101587.56;5079468;28;20052;-77
2023/01/23 04:16:51;;;;;;;6.75;3.92;;;;;;;2.94;100.00;101600.97;5082754;28;20036;-77
2023/01/23 04:19:20;;;;;;;8.00;4.40;;;;;;;1.86;100.00;101444.41;5084903;28;20452;-77
2023/01/23 04:21:47;;;;;;;6.05;4.32;;;;;;;3.03;100.00;101602.28;5086978;28;20044;-76
2023/01/23 04:24:14;;;;;;;8.88;3.88;;;;;;;2.03;100.00;101453.03;5082472;28;20071;-78
2023/01/23 04:26:39;;;;;;;7.95;3.67;;;;;;;1.92;100.00;101471.41;5086753;28;20044;-76
2023/01/23 04:29:05;;;;;;;8.55;4.55;;;;;;;2.69;100.00;101608.31;5088332;28;20507;-77
2023/01/23 04:31:31;;;;;;;6.38;4.00;;;;;;;1.85;100.00;101444.31;5083629;28;20105;-78
2023/01/23 04:33:56;;;;;;;7.32;3.92;;;;;;;1.67;100.00;101485.66;5084737;28;20086;-79
2023/01/23 04:36:22;;;;;;;9.18;3.88;;;;;;;2.37;100.00;101628.28;5085195;28;20488;-79
2023/01/23 04:38:47;;;;;;;7.80;4.57;;;;;;;2.78;100.00;101615.69;5082412;28;20070;-79
2023/01/23 04:41:21;;;;;;;10.45;4.95;;;;;;;2.30;100.00;101523.47;5080825;28;20051;-76
2023/01/23 04:43:47;;;;;;;12.27;4.20;;;;;;;2.67;100.00;101617.72;5080052;28;20043;-76
2023/01/23 04:46:13;;;;;;;10.27;4.57;;;;;;;2.82;100.00;101628.88;5088152;28;20464;-76
2023/01/23 04:48:39;;;;;;;8.50;4.18;;;;;;;2.87;100.00;101624.81;5085559;28;20043;-76
2023/01/23 04:51:04;;;;;;;8.10;4.30;;;;;;;1.72;100.00;101509.19;5086268;28;20101;-77
2023/01/23 04:53:30;;;;;;;10.60;3.00;;;;;;;2.43;100.00;101622.53;5088552;28;20146;-76
2023/01/23 04:55:55;;;;;;;11.77;4.78;;;;;;;2.38;100.00;101611.03;5086402;28;20024;-76
2023/01/23 04:58:21;;;;;;;12.90;5.50;;;;;;;1.90;100.00;101559.34;5084382;28;20120;-77
2023/01/23 05:00:47;;;;;;;10.00;4.38;;;;;;;2.46;100.00;101633.97;5086404;28;20067;-77
2023/01/23 05:03:13;;;;;;;7.30;4.07;;;;;;;2.50;100.00;101635.88;5081350;28;20055;-76
2023/01/23 05:05:38;;;;;;;7.97;4.43;;;;;;;1.88;100.00;101516.97;5088654;28;20044;-76
2023/01/23 05:08:04;;;;;;;9.02;3.60;;;;;;;1.84;100.00;101497.78;5089743;28;20055;-79
2023/01/23 05:10:29;;;;;;;9.13;3.97;;;;;;;1.84;100.00;101499.50;5083038;28;20580;-78
2023/01/23 05:12:55;;;;;;;7.05;3.85;;;;;;;1.95;100.00;101533.72;5083358;28;20044;-77
2023/01/23 05:15:20;;;;;;;10.60;4.13;;;;;;;2.79;100.00;101659.84;5085315;28;20572;-77
2023/01/23 05:17:47;;;;;;;7.00;3.75;;;;;;;2.68;100.00;101669.63;5085099;28;20047;-77
2023/01/23 05:20:13;;;;;;;9.65;4.72;;;;;;;2.77;100.00;101645.03;5085067;28;20044;-75
2023/01/23 05:22:50;;;;;;;7.72;3.15;;;;;;;2.69;100.00;101647.19;5084047;28;20380;-76
2023/01/23 05:25:23;;;;;;;11.95;4.70;;;;;;;2.36;100.00;101597.13;5082172;28;20039;-79
2023/01/23 05:27:49;;;;;;;8.88;3.60;;;;;;;1.85;100.00;101559.09;5082844;28;20056;-78
2023/01/23 05:30:15;;;;;;;7.38;3.08;;;;;;;1.31;100.00;101462.19;5082785;28;20044;-78
2023/01/23 05:32:41;;;;;;;7.70;3.67;;;;;;;1.87;100.00;101562.66;5081390;28;20061;-77
2023/01/23 05:35:07;;;;;;;10.00;3.30;;;;;;;2.60;100.00;101709.81;5085296;28;20047;-76
2023/01/23 05:37:32;;;;;;;11.27;4.15;;;;;;;2.46;100.00;101672.81;5086774;28;20046;-77
2023/01/23 05:39:58;;;;;;;6.35;3.42;;;;;;;2.86;100.00;101728.44;5084026;28;20048;-77
2023/01/23 05:42:23;;;;;;;8.95;3.13;;;;;;;2.51;100.00;101714.50;5084656;28;20109;-78
2023/01/23 05:44:49;;;;;;;7.95;3.58;;;;;;;2.16;100.00;101707.41;5087910;28;20139;-76
2023/01/23 05:47:14;;;;;;;8.75;2.85;;;;;;;1.62;100.00;101568.19;5087257;28;20101;-79
2023/01/23 05:49:40;;;;;;;8.45;3.10;;;;;;;2.69;100.00;101751.78;5086127;28;20058;-79
2023/01/23 05:52:05;;;;;;;15.77;4.10;;;;;;;1.67;100.00;101621.06;5079992;28;20529;-77
2023/01/23 05:54:31;;;;;;;8.90;5.13;;;;;;;2.16;100.00;101668.59;5077309;28;20548;-79
2023/01/23 05:56:56;;;;;;;7.07;3.72;;;;;;;2.46;100.00;101773.84;5080563;28;20188;-78
2023/01/23 05:59:22;;;;;;;7.78;4.50;;;;;;;2.63;100.00;101786.81;5084802;28;20040;-79
2023/01/23 06:01:47;;;;;;;8.18;4.22;;;;;;;2.32;100.00;101811.94;5086486;28;20484;-78
2023/01/23 06:04:15;;;;;;;12.85;4.00;;;;;;;2.21;100.00;101806.94;5090707;28;20048;-78
2023/01/23 06:06:41;;;;;;;8.45;4.55;;;;;;;1.50;100.00;101733.06;5081202;28;20128;-78
2023/01/23 06:09:07;;;;;;;7.70;4.00;;;;;;;1.66;100.00;101745.16;5083005;28;20134;-77
2023/01/23 06:11:32;;;;;;;5.13;3.17;;;;;;;0.91;100.00;101658.94;5082865;28;20044;-76
2023/01/23 06:13:58;;;;;;;7.25;3.90;;;;;;;1.36;100.00;101703.81;5080430;28;20060;-78
2023/01/23 06:16:23;;;;;;;10.65;5.38;;;;;;;1.93;100.00;101814.84;5093659;28;20046;-75
2023/01/23 06:18:48;;;;;;;11.10;4.57;;;;;;;0.92;100.00;101716.69;5085387;28;20093;-76
2023/01/23 06:21:17;;;;;;;9.77;4.63;;;;;;;1.71;100.00;101808.44;5080567;28;20199;-76
2023/01/23 06:23:43;;;;;;;8.90;4.22;;;;;;;1.84;100.00;101807.44;5088136;28;20058;-78
2023/01/23 06:26:08;;;;;;;8.15;5.25;;;;;;;1.87;100.00;101831.81;5089780;28;20050;-78
2023/01/23 06:28:34;;;;;;;10.38;6.00;;;;;;;2.00;100.00;101846.34;5088520;28;20032;-77
2023/01/23 06:31:01;;;;;;;12.10;5.10;;;;;;;0.58;100.00;101699.13;5080038;28;20621;-77
2023/01/23 06:33:26;;;;;;;12.23;4.25;;;;;;;1.74;100.00;101846.53;5080880;28;20044;-77
2023/01/23 06:35:59;;;;;;;8.50;4.47;;;;;;;1.43;100.00;101821.44;5080535;28;20136;-78
2023/01/23 06:38:25;;;;;;;12.75;6.00;;;;;;;0.94;100.00;101720.28;5081736;28;20143;-78
2023/01/23 06:40:52;;;;;;;10.73;5.40;;;;;;;1.86;100.00;101857.59;5087427;28;20043;-77
2023/01/23 06:43:17;;;;;;;9.93;5.72;;;;;;;1.58;100.00;101855.97;5094458;28;20071;-77
2023/01/23 06:45:44;;;;;;;12.82;5.88;;;;;;;1.77;100.00;101865.69;5083565;28;20099;-77
2023/01/23 06:48:10;;;;;;;11.52;6.55;;;;;;;1.10;100.00;101741.06;5084381;28;20048;-77
2023/01/23 06:50:37;;;;;;;13.98;7.50;;;;;;;1.04;100.00;101722.59;5083999;28;20044;-76
2023/01/23 06:53:04;;;;;;;17.52;7.63;;;;;;;1.40;100.00;101878.13;5088416;28;20048;-78
2023/01/23 06:55:30;;;;;;;14.38;6.60;;;;;;;0.88;100.00;101746.59;5082671;28;20467;-77
2023/01/23 06:57:55;;;;;;;9.80;6.30;;;;;;;0.94;100.00;101749.56;5087496;28;20056;-77
2023/01/23 07:00:21;;;;;;;13.05;5.85;;;;;;;1.56;100.00;101892.88;5083001;28;20044;-78
2023/01/23 07:02:47;;;;;;;11.98;5.28;;;;;;;1.63;100.00;101914.03;5076105;28;20361;-76
2023/01/23 07:05:12;;;;;;;9.57;5.28;;;;;;;1.12;100.00;101800.56;5078401;28;20051;-74
2023/01/23 07:07:38;;;;;;;9.95;5.97;;;;;;;1.96;100.00;101913.38;5085600;28;20044;-76
2023/01/23 07:10:04;;;;;;;7.53;4.65;;;;;;;0.94;100.00;101783.16;5080886;28;20471;-75
2023/01/23 07:12:30;;;;;;;12.93;6.38;;;;;;;1.94;100.00;101941.75;5075052;28;20147;-75
2023/01/23 07:14:55;;;;;;;7.18;4.30;;;;;;;1.30;100.00;101847.34;5080496;28;20871;-76
2023/01/23 07:17:21;;;;;;;6.78;2.90;;;;;;;1.68;100.00;101937.59;5074452;28;20078;-78
2023/01/23 07:19:46;;;;;;;13.57;4.45;;;;;;;1.43;100.00;101951.63;5081982;28;20036;-77
2023/01/23 07:22:12;;;;;;;7.53;4.53;;;;;;;0.55;100.00;101795.41;5083012;28;20455;-75
2023/01/23 07:24:37;;;;;;;7.10;3.92;;;;;;;0.70;100.00;101782.53;5073173;28;20315;-77
2023/01/23 07:27:03;;;;;;;10.05;3.65;;;;;;;1.48;100.00;101929.53;5077033;28;20043;-78
2023/01/23 07:29:28;;;;;;;9.88;5.13;;;;;;;1.61;100.00;101918.22;5076269;28;20040;-76
2023/01/23 07:31:54;;;;;;;8.30;2.80;;;;;;;0.84;100.00;101783.38;5080240;28;20048;-76
2023/01/23 07:34:19;;;;;;;7.30;3.03;;;;;;;1.31;100.00;101945.72;5079178;28;20067;-77
2023/01/23 07:36:45;;;;;;;9.30;3.58;;;;;;;1.08;100.00;101833.13;5079134;28;20071;-75
2023/01/23 07:39:10;;;;;;;12.52;4.35;;;;;;;1.13;100.00;101816.19;5082688;28;20055;-76
2023/01/23 07:41:36;;;;;;;6.07;3.42;;;;;;;1.72;100.00;101972.31;5082507;28;20597;-74
2023/01/23 07:44:01;;;;;;;6.65;3.15;;;;;;;0.95;100.00;101789.22;5081680;28;20036;-75
2023/01/23 07:46:27;;;;;;;7.03;3.58;;;;;;;1.20;100.00;101820.03;5079602;28;20048;-76
2023/01/23 07:48:55;;;;;;;7.55;4.30;;;;;;;1.34;100.00;101821.78;5080766;28;20632;-76
2023/01/23 07:51:20;;;;;;;8.73;4.38;;;;;;;1.16;100.00;101810.31;5079919;28;20043;-75
2023/01/23 07:53:45;;;;;;;8.85;4.18;;;;;;;1.82;100.00;101916.03;5079527;28;20043;-78
2023/01/23 07:56:12;;;;;;;9.70;4.50;;;;;;;1.53;100.00;101834.09;5076424;28;20041;-78
2023/01/23 07:58:37;;;;;;;9.32;5.22;;;;;;;2.20;100.00;101979.56;5077597;28;20056;-76
2023/01/23 08:01:10;;;;;;;14.90;4.80;;;;;;;2.19;100.00;101976.88;5085025;28;20044;-77
2023/01/23 08:03:35;;;;;;;10.13;4.77;;;;;;;2.30;100.00;101986.16;5080220;28;20096;-78
2023/01/23 08:06:01;;;;;;;7.93;4.30;;;;;;;1.57;100.00;101871.38;5078100;28;20273;-76
2023/01/23 08:08:26;;;;;;;9.23;6.50;;;;;;;2.20;100.00;101987.31;5083243;28;20035;-78
2023/01/23 08:10:52;;;;;;;5.93;2.78;;;;;;;2.02;100.00;101971.59;5080620;28;20048;-77
2023/01/23 08:13:17;;;;;;;7.72;3.97;;;;;;;2.07;100.00;101997.75;5079013;28;20054;-77
2023/01/23 08:15:43;;;;;;;9.98;4.05;;;;;;;1.55;100.00;101915.28;5080003;28;20377;-78
2023/01/23 08:18:08;;;;;;;5.30;2.97;;;;;;;2.14;100.00;102018.03;5080358;28;20082;-78
2023/01/23 08:20:34;;;;;;;6.55;3.65;;;;;;;2.20;100.00;102030.44;5078294;28;20775;-78
2023/01/23 08:23:00;;;;;;;11.63;4.07;;;;;;;2.15;100.00;102047.38;5080741;28;20475;-79
2023/01/23 08:25:26;;;;;;;7.90;3.13;;;;;;;1.65;100.00;101914.13;5079890;28;20052;-76
2023/01/23 08:27:52;;;;;;;10.23;5.00;;;;;;;1.85;100.00;101955.06;5073153;28;20484;-76
2023/01/23 08:30:17;;;;;;;6.80;3.63;;;;;;;1.50;100.00;101905.44;5073963;28;20180;-78
2023/01/23 08:32:43;;;;;;;9.75;4.45;;;;;;;1.51;100.00;101933.09;5076318;28;20459;-77
2023/01/23 08:35:08;;;;;;;6.65;4.05;;;;;;;1.42;100.00;101934.31;5079987;28;20041;-76
2023/01/23 08:37:35;;;;;;;8.13;4.72;;;;;;;2.46;100.00;102063.09;5075132;28;20411;-77
2023/01/23 08:40:01;;;;;;;10.60;3.58;;;;;;;2.42;100.00;102068.88;5082132;28;20073;-77
2023/01/23 08:42:27;;;;;;;7.90;4.28;;;;;;;2.03;100.00;102035.47;5078237;28;20908;-77
2023/01/23 08:44:52;;;;;;;9.23;3.55;;;;;;;1.31;100.00;101927.59;5072429;28;20043;-78
2023/01/23 08:47:18;;;;;;;7.43;3.85;;;;;;;1.99;100.00;102085.31;5073257;28;20051;-77
2023/01/23 08:49:43;;;;;;;6.88;2.47;;;;;;;1.25;100.00;101934.97;5067904;28;20066;-77
2023/01/23 08:52:08;;;;;;;7.35;3.30;;;;;;;2.27;100.00;102076.59;5070005;28;20060;-78
2023/01/23 08:54:34;;;;;;;8.70;5.15;;;;;;;2.14;100.00;102050.78;5076875;28;20578;-77
2023/01/23 08:57:00;;;;;;;10.63;4.10;;;;;;;0.89;100.00;101859.53;5079546;28;20048;-76
2023/01/23 08:59:26;;;;;;;7.38;3.08;;;;;;;2.26;100.00;102069.66;5080899;28;20430;-76
2023/01/23 09:01:52;;;;;;;5.32;3.38;;;;;;;1.43;100.00;101914.53;5078499;28;20045;-77
2023/01/23 09:04:17;;;;;;;8.18;2.90;;;;;;;2.10;100.00;102049.69;5073100;28;20048;-75
2023/01/23 09:06:43;;;;;;;8.00;2.88;;;;;;;1.38;100.00;101923.69;5073560;28;20085;-75
2023/01/23 09:09:08;;;;;;;7.30;4.22;;;;;;;1.40;100.00;101925.56;5075821;28;20199;-76
2023/01/23 09:11:34;;;;;;;5.55;3.05;;;;;;;1.35;100.00;101897.66;5081852;28;20031;-76
2023/01/23 09:13:59;;;;;;;7.28;3.38;;;;;;;2.16;100.00;102029.38;5079321;28;20499;-75
2023/01/23 09:16:25;;;;;;;8.30;3.33;;;;;;;2.13;100.00;102026.59;5082465;28;20036;-75
2023/01/23 09:18:50;;;;;;;5.03;3.33;;;;;;;2.19;100.00;102006.25;5077640;28;20147;-77
2023/01/23 09:21:16;;;;;;;5.40;3.25;;;;;;;1.95;100.00;101958.19;5075019;28;20049;-76
2023/01/23 09:23:42;;;;;;;8.15;3.50;;;;;;;2.39;100.00;102033.34;5071664;28;20040;-75
2023/01/23 09:26:09;;;;;;;7.75;3.00;;;;;;;2.52;100.00;102047.91;5077501;28;20092;-75
2023/01/23 09:28:36;;;;;;;6.40;3.00;;;;;;;2.39;100.00;102064.44;5075621;28;20115;-78
2023/01/23 09:31:03;;;;;;;9.07;4.90;;;;;;;2.47;100.00;102063.16;5077204;28;20071;-76
2023/01/23 09:33:28;;;;;;;11.75;5.25;;;;;;;2.32;100.00;102023.41;5074125;28;20056;-77
2023/01/23 09:35:54;;;;;;;7.38;2.67;;;;;;;2.39;100.00;102030.75;5074646;28;20047;-77
2023/01/23 09:38:19;;;;;;;7.10;3.22;;;;;;;1.58;100.00;101906.81;5078105;28;20082;-74
2023/01/23 09:40:49;;;;;;;14.95;3.63;;;;;;;2.51;100.00;102059.97;5079451;28;20043;-76
2023/01/23 09:43:32;;;;;;;5.93;3.00;;;;;;;1.93;100.00;101928.72;5075684;28;20044;-76
2023/01/23 09:46:14;;;;;;;8.02;4.28;;;;;;;2.63;100.00;102053.72;5076545;28;20054;-74
2023/01/23 09:48:52;;;;;;;8.35;3.75;;;;;;;2.46;100.00;102029.41;5070294;28;20139;-74
2023/01/23 09:51:57;;;;;;;5.97;3.03;;;;;;;2.57;100.00;102042.97;5069606;28;20048;-76
2023/01/23 09:54:39;;;;;;;9.82;3.70;;;;;;;2.36;100.00;102042.59;5070979;28;20059;-78
2023/01/23 09:57:23;;;;;;;7.47;2.85;;;;;;;2.32;100.00;102045.03;5066062;28;20074;-75
2023/01/23 09:59:54;;;;;;;6.13;1.95;;;;;;;1.38;100.00;101909.09;5078315;28;20051;-78
2023/01/23 10:02:22;;;;;;;8.85;4.32;;;;;;;2.48;100.00;102051.09;5072595;28;20078;-77
2023/01/23 10:04:50;;;;;;;6.97;3.60;;;;;;;2.54;100.00;102010.03;5076171;28;20048;-77
2023/01/23 10:07:34;;;;;;;10.50;4.38;;;;;;;2.85;100.00;102064.50;5070901;28;20071;-78
2023/01/23 10:10:23;;;;;;;6.90;3.45;;;;;;;2.16;100.00;101994.81;5085002;28;20403;-78
2023/01/23 10:13:14;;;;;;;7.05;3.30;;;;;;;2.68;100.00;102050.56;5083443;28;20051;-76
2023/01/23 10:15:58;;;;;;;6.00;3.08;;;;;;;2.75;100.00;102042.34;5072569;28;20514;-77
2023/01/23 10:18:32;;;;;;;8.77;2.83;;;;;;;2.01;100.00;101892.13;5077372;28;20088;-76
2023/01/23 10:21:12;;;;;;;7.45;2.60;;;;;;;1.81;100.00;101892.66;5076563;28;20059;-75
2023/01/23 10:24:18;;;;;;;4.20;2.08;;;;;;;2.65;100.00;102032.28;5087094;28;23425;-80
2023/01/23 10:26:46;;;;;;;6.35;2.33;;;;;;;1.89;100.00;101889.69;5069980;28;20593;-77
2023/01/23 10:29:11;;;;;;;6.60;3.55;;;;;;;2.11;100.00;101929.81;5093946;28;20044;-77
2023/01/23 10:31:48;;;;;;;4.45;2.78;;;;;;;2.52;100.00;102037.53;5069443;28;20075;-78
2023/01/23 10:34:40;;;;;;;7.03;2.70;;;;;;;2.47;100.00;102036.38;5075544;28;20092;-80
2023/01/23 10:37:08;;;;;;;9.48;3.17;;;;;;;2.18;100.00;102040.72;5077459;28;20059;-76
2023/01/23 10:40:01;;;;;;;10.40;3.75;;;;;;;2.61;100.00;102034.59;5077089;28;20144;-79
2023/01/23 10:42:27;;;;;;;14.68;3.10;;;;;;;1.72;100.00;101889.53;5076824;28;20127;-78
2023/01/23 10:44:52;;;;;;;8.02;3.42;;;;;;;2.52;100.00;102021.97;5076062;28;20137;-78
2023/01/23 10:47:40;;;;;;;6.85;3.20;;;;;;;2.05;100.00;101945.88;5084268;28;20047;-78
2023/01/23 10:50:06;;;;;;;8.15;3.03;;;;;;;1.76;100.00;101896.69;5077092;28;20583;-78
2023/01/23 10:52:38;;;;;;;6.15;2.80;;;;;;;2.27;100.00;102023.16;5076708;28;20044;-77
2023/01/23 10:55:05;;;;;;;9.35;3.03;;;;;;;2.36;100.00;102027.94;5081209;28;20040;-77
2023/01/23 10:57:54;;;;;;;12.00;3.78;;;;;;;2.59;100.00;102016.34;5075531;28;20052;-77
2023/01/23 11:00:28;;;;;;;10.10;4.05;;;;;;;2.77;100.00;102008.75;5070004;28;20403;-76
2023/01/23 11:02:54;;;;;;;9.40;3.60;;;;;;;1.62;100.00;101810.47;5078594;28;20051;-78
2023/01/23 11:05:41;;;;;;;7.35;3.38;;;;;;;2.56;100.00;102012.72;5078979;28;20081;-78
2023/01/23 11:08:25;;;;;;;7.32;3.13;;;;;;;2.53;100.00;102009.13;5074315;28;20044;-79
2023/01/23 11:10:50;;;;;;;10.50;3.75;;;;;;;1.84;100.00;101919.59;5081332;28;20048;-78
2023/01/23 11:13:29;;;;;;;6.63;3.08;;;;;;;2.42;100.00;102004.13;5082184;28;20055;-77
2023/01/23 11:15:58;;;;;;;34.85;4.50;;;;;;;2.02;100.00;101918.91;5077231;28;20067;-76
2023/01/23 11:18:43;;;;;;;11.98;5.15;;;;;;;1.83;100.00;101850.53;5075988;28;20045;-76
2023/01/23 11:21:23;;;;;;;6.15;2.80;;;;;;;1.97;100.00;101887.59;5078503;28;20051;-76
2023/01/23 11:24:06;;;;;;;14.65;6.90;;;;;;;2.02;100.00;101917.22;5066002;28;20054;-78
2023/01/23 11:26:33;;;;;;;9.98;3.83;;;;;;;2.61;100.00;102004.38;5079369;28;20032;-78
2023/01/23 11:28:58;;;;;;;5.72;3.45;;;;;;;2.31;100.00;101986.25;5076683;28;20112;-77
2023/01/23 11:31:28;;;;;;;7.20;2.92;;;;;;;2.20;100.00;101938.13;5076370;28;20051;-77